Time;durP1;ratioP1;P1;durP2;ratioP2;P2;SDS_P1;SDS_P2;PMS_P1;PMS_P2;Temp;Humidity;BMP_temperature;BMP_pressure;BME280_temperature;BME280_humidity;BME280_pressure;Samples;Min_cycle;Max_cycle;Signal;HPM_P1;HPM_P2
2022/10/22 00:04:06;;;;;;;2.67;2.47;;;;;;;;;;10453049;28;20214;-69
2022/10/22 00:09:07;;;;;;;3.75;2.33;;;;;;;;;;10449346;28;20214;-68
2022/10/22 00:14:09;;;;;;;2.70;2.50;;;;;;;;;;10448027;28;20592;-69
2022/10/22 00:19:12;;;;;;;2.38;2.28;;;;;;;;;;10446389;28;20225;-69
2022/10/22 00:24:14;;;;;;;2.60;2.50;;;;;;;;;;10443681;28;20215;-68
2022/10/22 00:29:18;;;;;;;2.53;2.33;;;;;;;;;;10456206;28;20222;-67
2022/10/22 00:34:21;;;;;;;2.65;2.55;;;;;;;;;;10453447;28;20229;-68
2022/10/22 00:39:22;;;;;;;3.20;3.00;;;;;;;;;;10449194;28;20222;-67
2022/10/22 00:44:42;;;;;;;2.53;2.42;;;;;;;;;;10449335;28;20617;-68
2022/10/22 00:49:44;;;;;;;2.70;2.60;;;;;;;;;;10445186;28;20314;-68
2022/10/22 00:54:45;;;;;;;2.80;2.63;;;;;;;;;;10447221;28;20227;-69
2022/10/22 00:59:47;;;;;;;3.13;2.85;;;;;;;;;;10445332;28;20288;-68
2022/10/22 01:04:48;;;;;;;3.60;3.35;;;;;;;;;;10443417;28;20222;-69
2022/10/22 01:09:59;;;;;;;3.05;2.85;;;;;;;;;;10449086;28;20229;-69
2022/10/22 01:15:00;;;;;;;2.85;2.55;;;;;;;;;;10447571;28;20217;-69
2022/10/22 01:20:20;;;;;;;3.00;2.80;;;;;;;;;;10446078;28;20210;-69
2022/10/22 01:25:30;;;;;;;2.95;2.75;;;;;;;;;;10445205;28;20198;-69
2022/10/22 01:30:32;;;;;;;3.78;3.58;;;;;;;;;;10447091;28;20309;-69
2022/10/22 01:35:41;;;;;;;3.58;3.38;;;;;;;;;;10450550;28;20237;-68
2022/10/22 01:40:42;;;;;;;2.55;2.35;;;;;;;;;;10448147;28;20227;-68
2022/10/22 01:45:46;;;;;;;3.08;2.92;;;;;;;;;;10445143;28;20230;-69
2022/10/22 01:51:06;;;;;;;3.42;3.22;;;;;;;;;;10442750;28;20222;-69
2022/10/22 01:56:22;;;;;;;2.88;2.70;;;;;;;;;;10445749;28;20215;-69
2022/10/22 02:01:23;;;;;;;2.35;2.20;;;;;;;;;;10455619;28;20233;-68
2022/10/22 02:06:25;;;;;;;3.03;2.83;;;;;;;;;;10441749;28;20226;-69
2022/10/22 02:11:26;;;;;;;6.05;2.63;;;;;;;;;;10442513;28;20288;-69
2022/10/22 02:16:47;;;;;;;2.90;2.80;;;;;;;;;;10442727;28;20234;-69
2022/10/22 02:21:48;;;;;;;2.20;2.10;;;;;;;;;;10442189;28;21069;-69
2022/10/22 02:26:56;;;;;;;2.78;2.58;;;;;;;;;;10448990;28;20225;-69
2022/10/22 02:31:58;;;;;;;3.38;3.15;;;;;;;;;;10454989;28;20218;-69
2022/10/22 02:37:00;;;;;;;2.67;2.55;;;;;;;;;;10456106;28;20236;-69
2022/10/22 02:42:02;;;;;;;2.38;2.28;;;;;;;;;;10455637;28;20242;-69
2022/10/22 02:47:04;;;;;;;4.97;3.90;;;;;;;;;;10450491;28;20234;-69
2022/10/22 02:52:05;;;;;;;3.03;2.88;;;;;;;;;;10452941;28;20329;-69
2022/10/22 02:57:06;;;;;;;3.53;3.10;;;;;;;;;;10449787;28;20275;-69
2022/10/22 03:02:07;;;;;;;3.72;3.42;;;;;;;;;;10450582;28;20222;-69
2022/10/22 03:07:08;;;;;;;4.32;4.03;;;;;;;;;;10450948;28;20225;-69
2022/10/22 03:12:09;;;;;;;3.95;3.67;;;;;;;;;;10448290;28;20226;-68
2022/10/22 03:17:10;;;;;;;3.83;3.63;;;;;;;;;;10450070;28;20219;-69
2022/10/22 03:22:22;;;;;;;2.88;2.67;;;;;;;;;;10448915;28;20217;-69
2022/10/22 03:27:24;;;;;;;3.70;3.45;;;;;;;;;;10451679;28;20516;-68
2022/10/22 03:32:25;;;;;;;2.58;2.45;;;;;;;;;;10451777;28;20647;-68
2022/10/22 03:37:26;;;;;;;4.47;4.10;;;;;;;;;;10450947;28;20215;-69
2022/10/22 03:42:27;;;;;;;3.25;3.08;;;;;;;;;;10449441;28;20218;-69
2022/10/22 03:47:28;;;;;;;3.75;3.40;;;;;;;;;;10448133;28;20226;-69
2022/10/22 03:52:34;;;;;;;3.38;3.05;;;;;;;;;;10453011;28;20265;-69
2022/10/22 03:57:35;;;;;;;3.70;3.40;;;;;;;;;;10452357;28;20219;-69
2022/10/22 04:02:37;;;;;;;3.55;3.33;;;;;;;;;;10461013;28;20218;-69
2022/10/22 04:07:38;;;;;;;4.50;4.10;;;;;;;;;;10459615;28;20274;-69
2022/10/22 04:12:39;;;;;;;4.30;4.00;;;;;;;;;;10457191;28;20218;-69
2022/10/22 04:17:40;;;;;;;3.45;3.25;;;;;;;;;;10446931;28;20214;-69
2022/10/22 04:22:41;;;;;;;3.53;3.22;;;;;;;;;;10440590;28;20279;-69
2022/10/22 04:27:42;;;;;;;4.70;4.40;;;;;;;;;;10455250;28;20218;-69
2022/10/22 04:32:43;;;;;;;3.83;3.53;;;;;;;;;;10455619;28;20753;-69
2022/10/22 04:37:44;;;;;;;3.70;3.58;;;;;;;;;;10454284;28;20206;-69
2022/10/22 04:42:45;;;;;;;3.95;3.75;;;;;;;;;;10445361;28;20549;-68
2022/10/22 04:47:46;;;;;;;4.13;3.78;;;;;;;;;;10447639;28;20227;-69
2022/10/22 04:52:48;;;;;;;4.15;3.88;;;;;;;;;;10448718;28;20226;-69
2022/10/22 04:57:49;;;;;;;4.18;3.80;;;;;;;;;;10447814;28;20215;-68
2022/10/22 05:02:50;;;;;;;4.30;3.97;;;;;;;;;;10449608;28;20272;-68
2022/10/22 05:07:51;;;;;;;4.57;4.18;;;;;;;;;;10450612;28;20221;-69
2022/10/22 05:12:52;;;;;;;4.50;4.10;;;;;;;;;;10451296;28;20222;-69
2022/10/22 05:17:53;;;;;;;4.07;3.80;;;;;;;;;;10441891;28;20642;-69
2022/10/22 05:22:55;;;;;;;3.65;3.40;;;;;;;;;;10445197;28;20626;-69
2022/10/22 05:27:56;;;;;;;4.07;3.60;;;;;;;;;;10445868;28;20217;-68
2022/10/22 05:32:57;;;;;;;6.60;3.95;;;;;;;;;;10447990;28;20226;-69
2022/10/22 05:37:58;;;;;;;3.67;3.47;;;;;;;;;;10447898;28;20228;-69
2022/10/22 05:42:59;;;;;;;3.15;3.03;;;;;;;;;;10448147;28;20793;-68
2022/10/22 05:48:00;;;;;;;4.10;3.47;;;;;;;;;;10453109;28;20214;-69
2022/10/22 05:53:01;;;;;;;3.63;3.40;;;;;;;;;;10449126;28;20221;-68
2022/10/22 05:58:03;;;;;;;4.03;3.72;;;;;;;;;;10457952;28;20789;-69
2022/10/22 06:03:04;;;;;;;3.45;3.25;;;;;;;;;;10464397;28;20315;-67
2022/10/22 06:08:06;;;;;;;3.70;3.50;;;;;;;;;;10462153;28;20350;-68
2022/10/22 06:13:07;;;;;;;3.35;3.22;;;;;;;;;;10456982;28;20738;-69
2022/10/22 06:18:08;;;;;;;4.13;3.78;;;;;;;;;;10461864;28;20581;-68
2022/10/22 06:23:09;;;;;;;5.45;4.20;;;;;;;;;;10457483;28;20328;-68
2022/10/22 06:28:10;;;;;;;4.20;3.90;;;;;;;;;;10462818;28;20800;-68
2022/10/22 06:33:11;;;;;;;5.80;3.88;;;;;;;;;;10461117;28;20287;-67
2022/10/22 06:38:12;;;;;;;5.70;4.00;;;;;;;;;;10459805;28;20209;-69
2022/10/22 06:43:14;;;;;;;4.00;3.60;;;;;;;;;;10455633;28;20309;-68
2022/10/22 06:48:15;;;;;;;4.88;4.15;;;;;;;;;;10457045;28;20297;-69
2022/10/22 06:53:16;;;;;;;5.65;5.10;;;;;;;;;;10459985;28;20694;-68
2022/10/22 06:58:17;;;;;;;5.28;4.88;;;;;;;;;;10464924;28;20302;-69
2022/10/22 07:03:19;;;;;;;4.50;4.10;;;;;;;;;;10462354;28;20249;-69
2022/10/22 07:08:20;;;;;;;3.70;3.40;;;;;;;;;;10450499;28;20218;-69
2022/10/22 07:13:21;;;;;;;5.00;4.40;;;;;;;;;;10449477;28;20234;-68
2022/10/22 07:18:22;;;;;;;4.05;3.78;;;;;;;;;;10452865;28;20217;-68
2022/10/22 07:23:24;;;;;;;3.72;3.53;;;;;;;;;;10439014;28;20218;-68
2022/10/22 07:28:26;;;;;;;4.13;3.83;;;;;;;;;;10452105;28;20215;-67
2022/10/22 07:33:28;;;;;;;5.10;3.20;;;;;;;;;;10461296;28;20720;-68
2022/10/22 07:38:30;;;;;;;5.22;3.97;;;;;;;;;;10453967;28;20264;-68
2022/10/22 07:43:31;;;;;;;4.82;4.22;;;;;;;;;;10451661;28;20239;-68
2022/10/22 07:48:32;;;;;;;5.22;4.72;;;;;;;;;;10454675;28;20694;-68
2022/10/22 07:53:33;;;;;;;6.43;4.80;;;;;;;;;;10453558;28;20233;-68
2022/10/22 07:58:35;;;;;;;5.80;5.30;;;;;;;;;;10445915;28;20245;-68
2022/10/22 08:03:36;;;;;;;4.95;4.47;;;;;;;;;;10453072;28;20234;-68
2022/10/22 08:08:37;;;;;;;4.53;4.18;;;;;;;;;;10457949;28;20275;-68
2022/10/22 08:13:38;;;;;;;5.97;5.38;;;;;;;;;;10452245;28;20265;-68
2022/10/22 08:18:39;;;;;;;8.27;5.28;;;;;;;;;;10449928;28;20222;-68
2022/10/22 08:23:40;;;;;;;7.03;5.32;;;;;;;;;;10452022;28;20929;-68
2022/10/22 08:28:41;;;;;;;6.88;5.47;;;;;;;;;;10457257;28;20313;-68
2022/10/22 08:33:42;;;;;;;7.20;5.63;;;;;;;;;;10459912;28;20756;-68
2022/10/22 08:38:43;;;;;;;6.05;5.38;;;;;;;;;;10452379;28;20595;-68
2022/10/22 08:43:48;;;;;;;5.20;4.80;;;;;;;;;;10449939;28;20236;-68
2022/10/22 08:48:59;;;;;;;7.22;5.13;;;;;;;;;;10455033;28;20223;-67
2022/10/22 08:54:19;;;;;;;5.68;5.18;;;;;;;;;;10449851;28;20228;-68
2022/10/22 08:59:26;;;;;;;4.78;4.40;;;;;;;;;;10450875;28;20240;-68
2022/10/22 09:04:33;;;;;;;9.60;5.13;;;;;;;;;;10445899;28;20267;-68
2022/10/22 09:09:38;;;;;;;5.25;4.80;;;;;;;;;;10449708;28;20222;-68
2022/10/22 09:14:39;;;;;;;5.43;4.93;;;;;;;;;;10444488;28;20223;-68
2022/10/22 09:19:59;;;;;;;4.60;3.92;;;;;;;;;;10428340;28;20219;-68
2022/10/22 09:25:19;;;;;;;3.70;3.45;;;;;;;;;;10449758;28;20214;-69
2022/10/22 09:30:22;;;;;;;6.13;3.63;;;;;;;;;;10449922;28;20205;-69
2022/10/22 09:35:23;;;;;;;3.97;2.63;;;;;;;;;;10452350;28;20306;-68
2022/10/22 09:40:25;;;;;;;3.72;2.90;;;;;;;;;;10453013;28;20762;-69
2022/10/22 09:45:26;;;;;;;5.43;3.25;;;;;;;;;;10448448;28;20324;-69
2022/10/22 09:50:29;;;;;;;3.10;2.60;;;;;;;;;;10449465;28;20221;-69
2022/10/22 09:55:31;;;;;;;2.45;2.35;;;;;;;;;;10446942;28;20226;-69
2022/10/22 10:00:32;;;;;;;1.85;1.85;;;;;;;;;;10447703;28;20249;-69
2022/10/22 10:05:36;;;;;;;1.50;1.40;;;;;;;;;;10449890;28;20213;-69
2022/10/22 10:10:49;;;;;;;1.10;1.00;;;;;;;;;;10449274;28;20257;-70
2022/10/22 10:15:56;;;;;;;3.10;0.90;;;;;;;;;;10447863;28;20210;-71
2022/10/22 10:21:03;;;;;;;5.05;1.10;;;;;;;;;;10449408;28;20218;-71
2022/10/22 10:26:09;;;;;;;0.60;0.60;;;;;;;;;;10455808;28;21219;-71
2022/10/22 10:31:16;;;;;;;1.95;0.90;;;;;;;;;;10456492;28;20625;-71
2022/10/22 10:36:20;;;;;;;0.70;0.70;;;;;;;;;;10444689;28;20210;-70
2022/10/22 10:41:24;;;;;;;4.85;0.50;;;;;;;;;;10446284;28;20628;-70
2022/10/22 10:46:28;;;;;;;0.40;0.40;;;;;;;;;;10456229;28;20231;-70
2022/10/22 10:51:35;;;;;;;1.27;0.40;;;;;;;;;;10454215;28;20269;-71
2022/10/22 10:56:45;;;;;;;4.18;0.40;;;;;;;;;;10458334;28;20326;-70
2022/10/22 11:01:46;;;;;;;0.50;0.50;;;;;;;;;;10458115;28;20671;-71
2022/10/22 11:06:48;;;;;;;4.53;0.43;;;;;;;;;;10453372;28;20277;-71
2022/10/22 11:11:55;;;;;;;0.40;0.40;;;;;;;;;;10452455;28;20229;-70
2022/10/22 11:17:01;;;;;;;2.47;1.55;;;;;;;;;;10449932;28;20690;-70
2022/10/22 11:22:09;;;;;;;0.43;0.43;;;;;;;;;;10454556;28;20215;-71
2022/10/22 11:27:36;;;;;;;1.60;0.50;;;;;;;;;;10452874;28;20218;-71
2022/10/22 11:32:38;;;;;;;3.53;0.50;;;;;;;;;;10446473;28;20245;-71
2022/10/22 11:37:40;;;;;;;0.82;0.40;;;;;;;;;;10454750;28;20566;-70
2022/10/22 11:42:45;;;;;;;2.45;0.80;;;;;;;;;;10448733;28;20257;-70
2022/10/22 11:47:56;;;;;;;3.65;0.85;;;;;;;;;;10456145;28;21278;-71
2022/10/22 11:53:02;;;;;;;0.65;0.60;;;;;;;;;;10453440;28;20276;-71
2022/10/22 11:58:23;;;;;;;4.03;0.57;;;;;;;;;;10458953;28;20221;-70
2022/10/22 12:03:27;;;;;;;3.05;0.50;;;;;;;;;;10448273;28;20227;-72
2022/10/22 12:08:29;;;;;;;1.15;0.50;;;;;;;;;;10449582;28;20905;-71
2022/10/22 12:13:57;;;;;;;1.75;0.60;;;;;;;;;;10448585;28;20714;-71
2022/10/22 12:19:18;;;;;;;1.10;1.10;;;;;;;;;;10448853;28;20697;-71
2022/10/22 12:24:20;;;;;;;2.85;0.95;;;;;;;;;;10440923;28;20225;-72
2022/10/22 12:29:22;;;;;;;1.10;0.80;;;;;;;;;;10454858;28;20267;-71
2022/10/22 12:34:24;;;;;;;3.00;0.82;;;;;;;;;;10460863;28;20231;-71
2022/10/22 12:39:26;;;;;;;1.85;0.98;;;;;;;;;;10450916;28;20267;-71
2022/10/22 12:44:27;;;;;;;2.55;1.25;;;;;;;;;;10449500;28;20230;-69
2022/10/22 12:49:49;;;;;;;3.05;0.70;;;;;;;;;;10452850;28;20293;-71
2022/10/22 12:54:51;;;;;;;1.45;1.08;;;;;;;;;;10456130;28;20266;-69
2022/10/22 12:59:52;;;;;;;0.98;0.98;;;;;;;;;;10452802;28;20218;-71
2022/10/22 13:05:12;;;;;;;2.05;1.00;;;;;;;;;;10452258;28;20228;-69
2022/10/22 13:10:16;;;;;;;2.95;0.68;;;;;;;;;;10458342;28;20225;-70
2022/10/22 13:15:29;;;;;;;1.90;0.70;;;;;;;;;;10458947;28;20310;-71
2022/10/22 13:20:31;;;;;;;3.10;0.90;;;;;;;;;;10456483;28;20222;-71
2022/10/22 13:25:33;;;;;;;3.22;0.63;;;;;;;;;;10452381;28;20220;-71
2022/10/22 13:30:35;;;;;;;0.98;0.60;;;;;;;;;;10452143;28;20226;-69
2022/10/22 13:35:37;;;;;;;0.95;0.60;;;;;;;;;;10454335;28;20222;-71
2022/10/22 13:40:38;;;;;;;1.25;0.50;;;;;;;;;;10452458;28;20325;-71
2022/10/22 13:45:40;;;;;;;2.25;0.60;;;;;;;;;;10447536;28;20238;-70
2022/10/22 13:50:41;;;;;;;1.23;0.68;;;;;;;;;;10449355;28;20240;-70
2022/10/22 13:55:43;;;;;;;3.97;0.50;;;;;;;;;;10455134;28;20226;-70
2022/10/22 14:00:46;;;;;;;1.10;0.63;;;;;;;;;;10450183;28;20222;-71
2022/10/22 14:05:48;;;;;;;1.75;0.70;;;;;;;;;;10455663;28;20229;-71
2022/10/22 14:10:49;;;;;;;0.50;0.47;;;;;;;;;;10448572;28;20260;-70
2022/10/22 14:15:51;;;;;;;0.95;0.80;;;;;;;;;;10446271;28;20222;-71
2022/10/22 14:20:54;;;;;;;2.38;0.65;;;;;;;;;;10458945;28;20251;-70
2022/10/22 14:25:55;;;;;;;4.22;0.50;;;;;;;;;;10462514;28;20214;-70
2022/10/22 14:30:56;;;;;;;0.95;0.75;;;;;;;;;;10460919;28;20225;-70
2022/10/22 14:35:58;;;;;;;1.58;0.70;;;;;;;;;;10455413;28;20599;-70
2022/10/22 14:40:59;;;;;;;0.82;0.60;;;;;;;;;;10458231;28;20254;-71
2022/10/22 14:46:01;;;;;;;0.60;0.60;;;;;;;;;;10456151;28;20770;-71
2022/10/22 14:51:02;;;;;;;1.35;0.50;;;;;;;;;;10452786;28;20217;-71
2022/10/22 14:56:03;;;;;;;0.60;0.60;;;;;;;;;;10454126;28;20219;-69
2022/10/22 15:01:04;;;;;;;0.75;0.75;;;;;;;;;;10457285;28;20219;-70
2022/10/22 15:06:05;;;;;;;1.98;0.60;;;;;;;;;;10456744;28;20218;-71
2022/10/22 15:11:07;;;;;;;2.60;0.55;;;;;;;;;;10453258;28;20203;-71
2022/10/22 15:16:09;;;;;;;4.68;0.65;;;;;;;;;;10457627;28;20211;-71
2022/10/22 15:21:15;;;;;;;1.33;0.50;;;;;;;;;;10461320;28;20221;-70
2022/10/22 15:26:16;;;;;;;1.95;0.85;;;;;;;;;;10454219;28;20214;-70
2022/10/22 15:31:37;;;;;;;7.00;0.90;;;;;;;;;;10456665;28;20206;-70
2022/10/22 15:36:38;;;;;;;0.50;0.50;;;;;;;;;;10454078;28;20271;-70
2022/10/22 15:41:40;;;;;;;0.47;0.47;;;;;;;;;;10457906;28;20685;-70
2022/10/22 15:46:41;;;;;;;1.13;0.90;;;;;;;;;;10456786;28;20694;-70
2022/10/22 15:51:42;;;;;;;0.70;0.70;;;;;;;;;;10455462;28;20643;-70
2022/10/22 15:56:44;;;;;;;0.98;0.90;;;;;;;;;;10455231;28;20219;-69
2022/10/22 16:01:45;;;;;;;3.08;1.50;;;;;;;;;;10454342;28;20254;-70
2022/10/22 16:06:48;;;;;;;2.67;2.47;;;;;;;;;;10455986;28;21351;-70
2022/10/22 16:11:49;;;;;;;1.90;1.75;;;;;;;;;;10456895;28;20219;-70
2022/10/22 16:16:52;;;;;;;3.33;2.78;;;;;;;;;;10456850;28;20238;-70
2022/10/22 16:21:54;;;;;;;1.30;1.30;;;;;;;;;;10452268;28;20268;-70
2022/10/22 16:26:55;;;;;;;1.52;1.42;;;;;;;;;;10459076;28;20218;-70
2022/10/22 16:31:56;;;;;;;1.85;1.33;;;;;;;;;;10459886;28;20309;-71
2022/10/22 16:36:57;;;;;;;5.30;2.42;;;;;;;;;;10456929;28;20214;-71
2022/10/22 16:41:58;;;;;;;2.10;2.00;;;;;;;;;;10453401;28;20214;-71
2022/10/22 16:47:00;;;;;;;2.30;1.13;;;;;;;;;;10454225;28;20227;-71
2022/10/22 16:52:01;;;;;;;0.75;0.63;;;;;;;;;;10446688;28;20226;-71
2022/10/22 16:57:02;;;;;;;1.63;1.23;;;;;;;;;;10453561;28;20215;-70
2022/10/22 17:02:03;;;;;;;1.10;0.50;;;;;;;;;;10453882;28;20710;-70
2022/10/22 17:07:04;;;;;;;1.85;0.70;;;;;;;;;;10450464;28;20784;-71
2022/10/22 17:12:05;;;;;;;1.60;0.90;;;;;;;;;;10451688;28;20690;-71
2022/10/22 17:17:06;;;;;;;0.80;0.80;;;;;;;;;;10450954;28;20316;-71
2022/10/22 17:22:07;;;;;;;3.10;1.42;;;;;;;;;;10455725;28;20287;-71
2022/10/22 17:27:09;;;;;;;6.90;1.48;;;;;;;;;;10454484;28;20222;-71
2022/10/22 17:32:10;;;;;;;1.40;1.23;;;;;;;;;;10456140;28;20305;-71
2022/10/22 17:37:11;;;;;;;1.38;1.30;;;;;;;;;;10453448;28;20214;-70
2022/10/22 17:42:12;;;;;;;1.95;0.88;;;;;;;;;;10450970;28;20222;-71
2022/10/22 17:47:14;;;;;;;0.98;0.98;;;;;;;;;;10452961;28;20850;-71
2022/10/22 17:52:15;;;;;;;0.77;0.77;;;;;;;;;;10450186;28;20225;-70
2022/10/22 17:57:16;;;;;;;1.25;1.10;;;;;;;;;;10460531;28;20213;-70
2022/10/22 18:02:18;;;;;;;4.22;1.05;;;;;;;;;;10462085;28;20222;-70
2022/10/22 18:07:19;;;;;;;3.92;1.27;;;;;;;;;;10457984;28;20292;-69
2022/10/22 18:12:20;;;;;;;1.02;0.82;;;;;;;;;;10451075;28;20280;-69
2022/10/22 18:17:22;;;;;;;1.75;1.15;;;;;;;;;;10454735;28;20222;-69
2022/10/22 18:22:23;;;;;;;3.15;1.42;;;;;;;;;;10451455;28;20785;-69
2022/10/22 18:27:24;;;;;;;1.48;1.40;;;;;;;;;;10455508;28;20331;-70
2022/10/22 18:32:25;;;;;;;3.30;2.08;;;;;;;;;;10455244;28;20226;-69
2022/10/22 18:37:26;;;;;;;1.55;1.45;;;;;;;;;;10452735;28;20233;-70
2022/10/22 18:42:27;;;;;;;1.55;1.42;;;;;;;;;;10454371;28;20218;-70
2022/10/22 18:47:28;;;;;;;3.67;2.85;;;;;;;;;;10464250;28;20658;-70
2022/10/22 18:52:30;;;;;;;1.90;1.80;;;;;;;;;;10451129;28;20671;-70
2022/10/22 18:57:31;;;;;;;2.42;2.33;;;;;;;;;;10457593;28;20219;-70
2022/10/22 19:02:32;;;;;;;8.20;4.40;;;;;;;;;;10454436;28;20594;-70
2022/10/22 19:07:35;;;;;;;6.10;3.42;;;;;;;;;;10451878;28;20308;-70
2022/10/22 19:12:36;;;;;;;3.22;2.90;;;;;;;;;;10453574;28;20230;-70
2022/10/22 19:17:37;;;;;;;2.53;2.25;;;;;;;;;;10451102;28;20214;-70
2022/10/22 19:22:38;;;;;;;7.13;5.43;;;;;;;;;;10458479;28;20222;-70
2022/10/22 19:27:39;;;;;;;2.60;2.42;;;;;;;;;;10460159;28;20761;-70
2022/10/22 19:32:40;;;;;;;1.92;1.63;;;;;;;;;;10462773;28;20780;-69
2022/10/22 19:37:41;;;;;;;1.77;1.65;;;;;;;;;;10454350;28;20621;-69
2022/10/22 19:42:45;;;;;;;4.72;1.45;;;;;;;;;;10457432;28;20279;-70
2022/10/22 19:47:46;;;;;;;2.10;2.00;;;;;;;;;;10456137;28;20249;-70
2022/10/22 19:52:50;;;;;;;1.83;1.73;;;;;;;;;;10459074;28;20224;-70
2022/10/22 19:57:51;;;;;;;2.85;1.58;;;;;;;;;;10454862;28;20216;-70
2022/10/22 20:02:52;;;;;;;1.60;1.58;;;;;;;;;;10448396;28;20221;-70
2022/10/22 20:07:53;;;;;;;4.78;1.90;;;;;;;;;;10456267;28;20249;-70
2022/10/22 20:12:54;;;;;;;3.13;1.60;;;;;;;;;;10455009;28;20304;-70
2022/10/22 20:17:55;;;;;;;3.28;2.08;;;;;;;;;;10452823;28;20646;-70
2022/10/22 20:22:57;;;;;;;1.50;1.45;;;;;;;;;;10454373;28;20595;-70
2022/10/22 20:27:58;;;;;;;4.97;3.03;;;;;;;;;;10457183;28;20309;-70
2022/10/22 20:32:59;;;;;;;3.60;3.28;;;;;;;;;;10459031;28;20226;-70
2022/10/22 20:38:00;;;;;;;3.85;3.00;;;;;;;;;;10459262;28;20276;-70
2022/10/22 20:43:01;;;;;;;4.18;2.42;;;;;;;;;;10453815;28;20802;-70
2022/10/22 20:48:03;;;;;;;2.22;2.17;;;;;;;;;;10460780;28;20210;-70
2022/10/22 20:53:04;;;;;;;2.40;2.30;;;;;;;;;;10457432;28;20409;-71
2022/10/22 20:58:05;;;;;;;3.95;2.38;;;;;;;;;;10459200;28;20221;-71
2022/10/22 21:03:07;;;;;;;4.63;2.40;;;;;;;;;;10457863;28;20720;-70
2022/10/22 21:08:09;;;;;;;3.17;2.97;;;;;;;;;;10459290;28;20269;-70
2022/10/22 21:13:10;;;;;;;8.32;2.78;;;;;;;;;;10454115;28;20237;-70
2022/10/22 21:18:12;;;;;;;3.15;2.95;;;;;;;;;;10460323;28;20202;-71
2022/10/22 21:23:13;;;;;;;2.85;2.72;;;;;;;;;;10458110;28;20218;-70
2022/10/22 21:28:14;;;;;;;6.28;2.78;;;;;;;;;;10455275;28;20244;-70
2022/10/22 21:33:15;;;;;;;2.50;2.20;;;;;;;;;;10457533;28;20220;-70
2022/10/22 21:38:16;;;;;;;3.83;3.00;;;;;;;;;;10454449;28;20218;-70
2022/10/22 21:43:18;;;;;;;3.03;2.83;;;;;;;;;;10455764;28;20365;-70
2022/10/22 21:48:19;;;;;;;3.13;2.90;;;;;;;;;;10458520;28;20219;-70
2022/10/22 21:53:20;;;;;;;3.45;3.17;;;;;;;;;;10456180;28;20906;-70
2022/10/22 21:58:21;;;;;;;2.30;2.20;;;;;;;;;;10455387;28;20333;-70
2022/10/22 22:03:22;;;;;;;2.67;2.55;;;;;;;;;;10456301;28;20210;-71
2022/10/22 22:08:23;;;;;;;5.38;2.70;;;;;;;;;;10454220;28;20302;-71
2022/10/22 22:13:24;;;;;;;4.25;2.00;;;;;;;;;;10455329;28;20227;-70
2022/10/22 22:18:26;;;;;;;2.42;2.33;;;;;;;;;;10456836;28;20214;-71
2022/10/22 22:23:27;;;;;;;2.70;2.50;;;;;;;;;;10453179;28;20340;-71
2022/10/22 22:28:28;;;;;;;3.33;2.30;;;;;;;;;;10452898;28;20222;-70
2022/10/22 22:33:29;;;;;;;2.25;2.13;;;;;;;;;;10455087;28;20249;-70
2022/10/22 22:38:30;;;;;;;2.60;2.20;;;;;;;;;;10456000;28;20222;-70
2022/10/22 22:43:32;;;;;;;3.50;2.33;;;;;;;;;;10461153;28;20615;-71
2022/10/22 22:48:33;;;;;;;3.63;2.92;;;;;;;;;;10463959;28;20233;-71
2022/10/22 22:53:35;;;;;;;2.20;2.10;;;;;;;;;;10463766;28;20275;-71
2022/10/22 22:58:37;;;;;;;2.80;2.10;;;;;;;;;;10462070;28;20214;-71
2022/10/22 23:03:38;;;;;;;2.50;2.35;;;;;;;;;;10465116;28;20264;-70
2022/10/22 23:08:40;;;;;;;2.20;2.10;;;;;;;;;;10463029;28;20313;-71
2022/10/22 23:13:41;;;;;;;3.30;3.00;;;;;;;;;;10459787;28;20996;-70
2022/10/22 23:18:43;;;;;;;7.03;2.80;;;;;;;;;;10462831;28;20226;-71
2022/10/22 23:23:45;;;;;;;2.50;2.40;;;;;;;;;;10462447;28;20219;-71
2022/10/22 23:28:46;;;;;;;2.63;2.42;;;;;;;;;;10461490;28;20284;-71
2022/10/22 23:33:48;;;;;;;2.85;2.65;;;;;;;;;;10459158;28;20218;-71
2022/10/22 23:38:49;;;;;;;3.50;2.50;;;;;;;;;;10464167;28;20211;-70
2022/10/22 23:43:50;;;;;;;4.28;2.63;;;;;;;;;;10459775;28;20701;-70
2022/10/22 23:48:52;;;;;;;2.92;2.38;;;;;;;;;;10460590;28;20214;-70
2022/10/22 23:53:55;;;;;;;3.92;3.33;;;;;;;;;;10456000;28;20969;-71
2022/10/22 23:58:56;;;;;;;2.50;2.30;;;;;;;;;;10454538;28;20242;-69
